Time;durP1;ratioP1;P1;durP2;ratioP2;P2;SDS_P1;SDS_P2;PMS_P1;PMS_P2;Temp;Humidity;BMP_temperature;BMP_pressure;BME280_temperature;BME280_humidity;BME280_pressure;Samples;Min_cycle;Max_cycle;Signal;HPM_P1;HPM_P2
2021/01/12 00:01:49;;;;;;;0.80;0.35;;;20.60;40.10;;;;;;5086529;28;20035;-45
2021/01/12 00:04:14;;;;;;;1.80;0.70;;;20.50;40.00;;;;;;5081721;28;20100;-44
2021/01/12 00:06:41;;;;;;;0.98;0.35;;;20.50;40.00;;;;;;5073124;28;20036;-42
2021/01/12 00:09:07;;;;;;;2.30;0.65;;;20.50;40.00;;;;;;5083501;28;20107;-45
2021/01/12 00:11:32;;;;;;;1.10;0.70;;;20.50;40.00;;;;;;5092198;28;20056;-43
2021/01/12 00:13:58;;;;;;;1.65;0.50;;;20.50;40.00;;;;;;5084263;28;20432;-41
2021/01/12 00:16:24;;;;;;;0.85;0.50;;;20.40;39.90;;;;;;5087799;28;20472;-45
2021/01/12 00:18:49;;;;;;;0.70;0.40;;;20.40;39.90;;;;;;5088683;28;20036;-46
2021/01/12 00:21:15;;;;;;;0.68;0.32;;;20.40;40.00;;;;;;5084080;28;20028;-46
2021/01/12 00:23:41;;;;;;;1.33;0.70;;;20.40;40.00;;;;;;5086869;28;20024;-40
2021/01/12 00:26:10;;;;;;;0.90;0.47;;;20.40;40.00;;;;;;5089286;28;20142;-42
2021/01/12 00:28:36;;;;;;;0.52;0.22;;;20.40;40.00;;;;;;5091541;28;20080;-42
2021/01/12 00:31:05;;;;;;;1.25;0.60;;;20.40;40.00;;;;;;5085040;28;20029;-43
2021/01/12 00:33:32;;;;;;;2.22;0.65;;;20.30;39.90;;;;;;5089939;28;20032;-45
2021/01/12 00:36:06;;;;;;;1.60;0.57;;;20.30;40.00;;;;;;5089904;28;20059;-43
2021/01/12 00:38:32;;;;;;;0.60;0.40;;;20.30;40.00;;;;;;5091903;28;20063;-43
2021/01/12 00:40:58;;;;;;;1.90;0.60;;;20.30;40.00;;;;;;5086919;28;20051;-43
2021/01/12 00:43:25;;;;;;;0.90;0.68;;;20.30;40.00;;;;;;5080709;28;20048;-43
2021/01/12 00:45:51;;;;;;;7.55;0.80;;;20.30;39.90;;;;;;5091436;28;20024;-43
2021/01/12 00:48:17;;;;;;;1.05;0.50;;;20.30;39.90;;;;;;5091466;28;20038;-41
2021/01/12 00:50:42;;;;;;;1.00;0.57;;;20.30;39.90;;;;;;5092079;28;20031;-42
2021/01/12 00:53:08;;;;;;;0.85;0.60;;;20.30;39.90;;;;;;5087802;28;20031;-46
2021/01/12 00:55:33;;;;;;;1.73;0.65;;;20.20;39.90;;;;;;5084083;28;20058;-42
2021/01/12 00:57:59;;;;;;;1.10;0.57;;;20.20;39.90;;;;;;5091076;28;20015;-44
2021/01/12 01:00:25;;;;;;;0.80;0.40;;;20.20;39.90;;;;;;5077268;28;20029;-42
2021/01/12 01:02:50;;;;;;;1.40;0.77;;;20.20;39.90;;;;;;5080750;28;20035;-45
2021/01/12 01:05:16;;;;;;;1.25;0.40;;;20.20;39.90;;;;;;5087261;28;20031;-43
2021/01/12 01:07:45;;;;;;;1.40;0.73;;;20.20;39.90;;;;;;5091423;28;20111;-38
2021/01/12 01:10:11;;;;;;;0.85;0.40;;;20.10;39.90;;;;;;5089663;28;20512;-42
2021/01/12 01:12:37;;;;;;;1.27;0.43;;;20.10;39.90;;;;;;5090774;28;20453;-45
2021/01/12 01:15:03;;;;;;;1.00;0.50;;;20.10;39.90;;;;;;5089053;28;20039;-44
2021/01/12 01:17:29;;;;;;;1.02;0.50;;;20.10;39.90;;;;;;5081626;28;20028;-43
2021/01/12 01:19:54;;;;;;;0.85;0.43;;;20.10;39.90;;;;;;5078178;28;20025;-41
2021/01/12 01:22:23;;;;;;;1.20;0.40;;;20.10;39.90;;;;;;5088570;28;20036;-44
2021/01/12 01:24:49;;;;;;;1.65;0.30;;;20.00;39.90;;;;;;5089993;28;20044;-41
2021/01/12 01:27:14;;;;;;;1.30;0.63;;;20.00;39.90;;;;;;5078370;28;20339;-43
2021/01/12 01:29:40;;;;;;;0.60;0.30;;;20.00;39.90;;;;;;5078856;28;20482;-46
2021/01/12 01:32:08;;;;;;;0.80;0.32;;;20.00;40.00;;;;;;5084306;28;20028;-43
2021/01/12 01:34:34;;;;;;;2.00;0.50;;;19.90;39.90;;;;;;5085980;22;20311;-48
2021/01/12 01:37:03;;;;;;;1.00;0.47;;;19.90;39.90;;;;;;5066277;28;20046;-48
2021/01/12 01:39:29;;;;;;;1.20;0.30;;;20.00;40.00;;;;;;5051373;28;20033;-47
2021/01/12 01:41:59;;;;;;;1.42;0.38;;;19.90;40.50;;;;;;5055962;28;20427;-48
2021/01/12 01:44:25;;;;;;;1.52;0.45;;;19.90;40.00;;;;;;5050074;28;20029;-48
2021/01/12 01:46:51;;;;;;;0.80;0.30;;;19.90;39.90;;;;;;5037786;28;20049;-50
2021/01/12 01:49:17;;;;;;;1.50;0.57;;;19.90;39.90;;;;;;5045130;28;20059;-48
2021/01/12 01:51:44;;;;;;;0.70;0.40;;;19.90;40.00;;;;;;5045269;28;20021;-48
2021/01/12 01:54:12;;;;;;;1.00;0.32;;;19.90;40.00;;;;;;5040012;28;20402;-45
2021/01/12 01:56:37;;;;;;;1.02;0.50;;;19.90;40.50;;;;;;5040565;28;20029;-49
2021/01/12 01:59:03;;;;;;;0.75;0.30;;;19.80;40.00;;;;;;5043224;28;20041;-49
2021/01/12 02:01:29;;;;;;;0.93;0.40;;;19.80;40.00;;;;;;5042783;28;20021;-48
2021/01/12 02:04:16;;;;;;;2.53;0.35;;;19.80;40.00;;;;;;5043086;28;20040;-51
2021/01/12 02:06:43;;;;;;;1.23;0.40;;;19.80;40.00;;;;;;5038923;28;20033;-49
2021/01/12 02:09:40;;;;;;;1.30;0.40;;;19.80;40.00;;;;;;5038992;28;20159;-48
2021/01/12 02:12:14;;;;;;;0.70;0.32;;;19.70;40.00;;;;;;5021552;28;20045;-47
2021/01/12 02:14:40;;;;;;;2.22;0.32;;;19.70;40.00;;;;;;5034677;28;20425;-47
2021/01/12 02:17:08;;;;;;;0.85;0.30;;;19.70;40.00;;;;;;5046172;28;20033;-48
2021/01/12 02:19:34;;;;;;;1.55;0.50;;;19.70;40.00;;;;;;5042756;28;20029;-46
2021/01/12 02:22:03;;;;;;;0.98;0.40;;;19.70;40.10;;;;;;5038712;28;20043;-43
2021/01/12 02:24:30;;;;;;;1.00;0.30;;;19.70;40.10;;;;;;5036233;28;20033;-49
2021/01/12 02:26:56;;;;;;;0.93;0.40;;;19.70;40.10;;;;;;5041249;28;20021;-48
2021/01/12 02:29:23;;;;;;;0.73;0.20;;;19.70;40.10;;;;;;5030993;28;20063;-48
2021/01/12 02:31:49;;;;;;;0.60;0.20;;;19.70;40.10;;;;;;5043632;28;20022;-47
2021/01/12 02:34:18;;;;;;;1.67;0.30;;;19.60;40.10;;;;;;5042903;28;20037;-47
2021/01/12 02:36:45;;;;;;;2.53;0.45;;;19.60;40.10;;;;;;5041277;28;20125;-48
2021/01/12 02:39:12;;;;;;;0.73;0.30;;;19.60;40.10;;;;;;5032296;28;20033;-45
2021/01/12 02:41:38;;;;;;;0.70;0.30;;;19.60;40.10;;;;;;5034335;28;20033;-48
2021/01/12 02:44:03;;;;;;;0.93;0.35;;;19.60;40.10;;;;;;5039552;28;20055;-48
2021/01/12 02:46:30;;;;;;;0.60;0.30;;;19.60;40.10;;;;;;5041320;28;20026;-46
2021/01/12 02:48:56;;;;;;;0.50;0.40;;;19.60;40.10;;;;;;5035522;28;20017;-49
2021/01/12 02:51:21;;;;;;;0.75;0.30;;;19.60;40.10;;;;;;5041678;28;20097;-47
2021/01/12 02:53:47;;;;;;;0.50;0.20;;;19.60;40.10;;;;;;5038873;28;20017;-45
2021/01/12 02:56:12;;;;;;;1.02;0.30;;;19.60;40.10;;;;;;5030125;28;20406;-45
2021/01/12 02:58:38;;;;;;;0.93;0.28;;;19.50;40.10;;;;;;5042399;28;20032;-48
2021/01/12 03:01:04;;;;;;;0.40;0.20;;;19.50;40.10;;;;;;5045803;28;20048;-46
2021/01/12 03:03:30;;;;;;;0.57;0.20;;;19.50;40.10;;;;;;5030901;28;20041;-50
2021/01/12 03:05:56;;;;;;;1.27;0.40;;;19.50;40.10;;;;;;5041642;28;20147;-48
2021/01/12 03:08:21;;;;;;;0.52;0.28;;;19.50;40.10;;;;;;5049050;28;20021;-48
2021/01/12 03:10:48;;;;;;;1.27;0.30;;;19.50;40.10;;;;;;5039663;28;20028;-48
2021/01/12 03:13:13;;;;;;;1.02;0.30;;;19.50;40.10;;;;;;5047402;28;21537;-47
2021/01/12 03:15:39;;;;;;;0.60;0.20;;;19.50;40.10;;;;;;5042472;28;20025;-48
2021/01/12 03:18:07;;;;;;;0.38;0.20;;;19.50;40.10;;;;;;5048427;28;20033;-49
2021/01/12 03:20:33;;;;;;;0.50;0.20;;;19.50;40.10;;;;;;5042932;28;20033;-47
2021/01/12 03:22:59;;;;;;;0.80;0.28;;;19.50;40.10;;;;;;5033272;28;20032;-47
2021/01/12 03:25:24;;;;;;;1.27;0.20;;;19.40;40.10;;;;;;5036878;28;20037;-49
2021/01/12 03:27:50;;;;;;;0.50;0.20;;;19.40;40.10;;;;;;5047256;28;20029;-48
2021/01/12 03:30:16;;;;;;;0.47;0.10;;;19.40;40.10;;;;;;5046987;28;20061;-44
2021/01/12 03:32:43;;;;;;;0.52;0.10;;;19.40;40.10;;;;;;5043293;28;20029;-47
2021/01/12 03:35:09;;;;;;;0.47;0.10;;;19.40;40.10;;;;;;5027214;28;538392;-47
2021/01/12 03:37:35;;;;;;;0.38;0.20;;;19.40;40.10;;;;;;5047500;28;20036;-47
2021/01/12 03:40:02;;;;;;;0.88;0.15;;;19.40;40.10;;;;;;5045030;28;20068;-49
2021/01/12 03:42:27;;;;;;;0.45;0.20;;;19.40;40.00;;;;;;5050934;28;20120;-47
2021/01/12 03:44:53;;;;;;;0.60;0.20;;;19.40;40.10;;;;;;5042451;28;20466;-47
2021/01/12 03:47:19;;;;;;;0.38;0.10;;;19.40;40.20;;;;;;5048539;28;20026;-48
2021/01/12 03:49:45;;;;;;;0.35;0.20;;;19.40;40.20;;;;;;5046908;28;20447;-48
2021/01/12 03:52:11;;;;;;;0.80;0.20;;;19.40;40.20;;;;;;5045384;28;20449;-46
2021/01/12 03:54:36;;;;;;;0.32;0.10;;;19.30;40.10;;;;;;5034576;28;20029;-46
2021/01/12 03:57:02;;;;;;;0.30;0.10;;;19.30;40.10;;;;;;5044220;28;20037;-47
2021/01/12 03:59:28;;;;;;;0.40;0.10;;;19.30;40.10;;;;;;5050301;28;20029;-47
2021/01/12 04:01:53;;;;;;;0.82;0.20;;;19.30;40.20;;;;;;5049262;28;20041;-46
2021/01/12 04:04:19;;;;;;;0.68;0.38;;;19.30;40.20;;;;;;5050911;28;20087;-49
2021/01/12 04:06:45;;;;;;;0.88;0.20;;;19.30;40.20;;;;;;5044347;28;20037;-49
2021/01/12 04:09:11;;;;;;;0.38;0.10;;;19.30;40.20;;;;;;5049578;28;20242;-47
2021/01/12 04:11:37;;;;;;;0.77;0.20;;;19.30;40.20;;;;;;5047321;28;20086;-48
2021/01/12 04:14:03;;;;;;;0.68;0.20;;;19.30;40.20;;;;;;5036580;28;20032;-48
2021/01/12 04:16:29;;;;;;;1.02;0.10;;;19.30;40.20;;;;;;5041159;28;20139;-48
2021/01/12 04:18:55;;;;;;;0.50;0.20;;;19.30;40.20;;;;;;5045958;28;20248;-49
2021/01/12 04:21:20;;;;;;;0.60;0.20;;;19.30;40.20;;;;;;5049466;28;20037;-45
2021/01/12 04:23:46;;;;;;;0.40;0.10;;;19.20;40.10;;;;;;5040998;28;20132;-48
2021/01/12 04:26:11;;;;;;;0.50;0.20;;;19.20;40.10;;;;;;5048885;28;20114;-49
2021/01/12 04:28:37;;;;;;;0.70;0.22;;;19.20;40.20;;;;;;5047563;28;20029;-46
2021/01/12 04:31:03;;;;;;;0.40;0.10;;;19.20;40.10;;;;;;5042649;28;20025;-48
2021/01/12 04:33:28;;;;;;;0.40;0.20;;;19.20;40.10;;;;;;5031424;28;20021;-46
2021/01/12 04:35:54;;;;;;;0.43;0.10;;;19.20;40.20;;;;;;5061742;28;20536;-50
2021/01/12 04:38:20;;;;;;;0.63;0.20;;;19.20;40.20;;;;;;5048700;28;20083;-47
2021/01/12 04:40:46;;;;;;;0.43;0.10;;;19.20;40.20;;;;;;5045564;28;20033;-48
2021/01/12 04:43:12;;;;;;;0.60;0.20;;;19.20;40.20;;;;;;5033806;28;20446;-46
2021/01/12 04:45:39;;;;;;;0.45;0.20;;;19.10;40.20;;;;;;5044139;28;20152;-48
2021/01/12 04:48:05;;;;;;;1.38;0.20;;;19.20;40.20;;;;;;5049082;28;20470;-49
2021/01/12 04:50:31;;;;;;;0.40;0.10;;;19.10;40.10;;;;;;5043683;28;20033;-48
2021/01/12 04:52:56;;;;;;;0.30;0.10;;;19.10;40.20;;;;;;5062407;28;20121;-44
2021/01/12 04:55:22;;;;;;;0.57;0.10;;;19.10;40.10;;;;;;5047287;28;20021;-48
2021/01/12 04:57:49;;;;;;;0.52;0.10;;;19.10;40.20;;;;;;5037553;28;20433;-48
2021/01/12 05:00:27;;;;;;;0.30;0.10;;;19.10;40.10;;;;;;5048590;28;20045;-49
2021/01/12 05:03:00;;;;;;;0.28;0.10;;;19.10;40.20;;;;;;5041697;28;20506;-48
2021/01/12 05:05:37;;;;;;;0.35;0.13;;;19.10;40.20;;;;;;5032907;28;20047;-48
2021/01/12 05:08:05;;;;;;;0.40;0.10;;;19.10;40.10;;;;;;5031722;28;20057;-47
2021/01/12 05:10:34;;;;;;;0.40;0.10;;;19.10;40.10;;;;;;5047448;28;20036;-51
2021/01/12 05:13:00;;;;;;;0.30;0.10;;;19.10;40.10;;;;;;5037150;28;20029;-46
2021/01/12 05:15:28;;;;;;;0.30;0.10;;;19.10;40.20;;;;;;5042328;28;20025;-47
2021/01/12 05:17:57;;;;;;;0.30;0.10;;;19.10;40.20;;;;;;5043985;28;20039;-49
2021/01/12 05:20:27;;;;;;;0.22;0.10;;;19.10;40.20;;;;;;5046530;28;20043;-47
2021/01/12 05:23:06;;;;;;;0.60;0.10;;;19.10;40.20;;;;;;5033452;28;20033;-46
2021/01/12 05:25:35;;;;;;;0.30;0.05;;;19.10;40.20;;;;;;5031849;28;20033;-48
2021/01/12 05:28:04;;;;;;;0.38;0.10;;;19.00;40.20;;;;;;5038899;28;20033;-48
2021/01/12 05:30:30;;;;;;;0.47;0.10;;;19.00;40.20;;;;;;5046317;28;20128;-48
2021/01/12 05:32:58;;;;;;;0.10;0.00;;;19.00;40.20;;;;;;5035499;28;20119;-46
2021/01/12 05:35:34;;;;;;;0.63;0.10;;;19.00;40.20;;;;;;5048279;28;20517;-47
2021/01/12 05:38:08;;;;;;;0.30;0.10;;;19.00;40.20;;;;;;5039703;28;20438;-50
2021/01/12 05:40:38;;;;;;;0.22;0.10;;;19.00;40.20;;;;;;5048223;28;20379;-49
2021/01/12 05:43:04;;;;;;;0.30;0.10;;;19.00;40.20;;;;;;5038953;28;20048;-48
2021/01/12 05:45:34;;;;;;;0.60;0.10;;;19.00;40.20;;;;;;5046570;28;20063;-48
2021/01/12 05:48:00;;;;;;;0.88;0.10;;;19.00;40.20;;;;;;5040526;28;20498;-49
2021/01/12 05:50:29;;;;;;;0.47;0.10;;;19.00;40.20;;;;;;5045668;28;20028;-49
2021/01/12 05:53:02;;;;;;;0.77;0.10;;;19.00;40.20;;;;;;5045262;28;20029;-48
2021/01/12 05:55:34;;;;;;;0.30;0.10;;;19.00;40.20;;;;;;5031932;28;20064;-48
2021/01/12 05:58:09;;;;;;;0.40;0.10;;;19.00;40.10;;;;;;5042803;28;20056;-49
2021/01/12 06:00:37;;;;;;;0.30;0.10;;;18.90;40.60;;;;;;5047264;28;20064;-49
2021/01/12 06:03:06;;;;;;;0.22;0.10;;;18.90;40.20;;;;;;5037505;28;20378;-49
2021/01/12 06:05:33;;;;;;;0.30;0.10;;;18.90;40.20;;;;;;5032084;28;20498;-47
2021/01/12 06:07:58;;;;;;;0.40;0.10;;;18.90;40.10;;;;;;5030753;28;20495;-47
2021/01/12 06:10:27;;;;;;;0.35;0.15;;;19.00;40.30;;;;;;5048435;28;20043;-48
2021/01/12 06:12:56;;;;;;;0.50;0.10;;;18.90;40.40;;;;;;5036263;28;20507;-48
2021/01/12 06:15:26;;;;;;;0.32;0.10;;;19.00;40.40;;;;;;5046570;28;20029;-48
2021/01/12 06:18:04;;;;;;;0.30;0.10;;;19.20;40.10;;;;;;5045645;28;20040;-48
2021/01/12 06:20:44;;;;;;;0.35;0.10;;;19.30;39.80;;;;;;5047975;28;20510;-47
2021/01/12 06:23:17;;;;;;;0.30;0.05;;;19.40;39.60;;;;;;5041171;28;20444;-49
2021/01/12 06:25:44;;;;;;;0.10;0.00;;;19.60;39.50;;;;;;5047661;28;20022;-50
2021/01/12 06:28:10;;;;;;;0.13;0.00;;;19.60;39.30;;;;;;5031008;28;20038;-50
2021/01/12 06:30:36;;;;;;;0.28;0.00;;;19.70;39.20;;;;;;5028565;28;20037;-50
2021/01/12 06:33:03;;;;;;;0.10;0.00;;;19.70;39.10;;;;;;5034200;28;20121;-49
2021/01/12 06:35:29;;;;;;;0.10;0.00;;;19.80;39.10;;;;;;5049046;28;20540;-48
2021/01/12 06:37:58;;;;;;;0.20;0.00;;;19.80;39.10;;;;;;5044907;28;20026;-49
2021/01/12 06:40:25;;;;;;;0.55;0.10;;;19.90;39.10;;;;;;5035561;28;20035;-46
2021/01/12 06:42:57;;;;;;;0.20;0.00;;;19.90;39.10;;;;;;5036294;28;20147;-48
2021/01/12 06:45:23;;;;;;;0.65;0.10;;;19.90;39.10;;;;;;5050479;28;20069;-49
2021/01/12 06:47:49;;;;;;;0.30;0.10;;;19.90;39.00;;;;;;5050380;28;20467;-49
2021/01/12 06:50:18;;;;;;;0.25;0.10;;;19.90;39.00;;;;;;5048092;28;20036;-48
2021/01/12 06:52:49;;;;;;;0.30;0.10;;;20.00;39.00;;;;;;5039679;28;20091;-49
2021/01/12 06:55:16;;;;;;;0.40;0.10;;;20.00;39.00;;;;;;5037003;28;20079;-47
2021/01/12 06:57:46;;;;;;;0.30;0.10;;;20.10;39.00;;;;;;5045848;28;20108;-47
2021/01/12 07:00:13;;;;;;;0.20;0.10;;;20.10;38.90;;;;;;5046912;28;20108;-46
2021/01/12 07:02:38;;;;;;;0.40;0.08;;;20.20;38.90;;;;;;5038965;28;20080;-49
2021/01/12 07:05:10;;;;;;;0.30;0.10;;;20.10;38.80;;;;;;5034205;28;20033;-48
2021/01/12 07:07:47;;;;;;;0.38;0.10;;;20.20;38.80;;;;;;5045269;28;20107;-46
2021/01/12 07:10:17;;;;;;;0.30;0.10;;;20.20;38.80;;;;;;5043852;28;20040;-48
2021/01/12 07:12:44;;;;;;;0.30;0.10;;;20.20;38.80;;;;;;5037684;28;20547;-48
2021/01/12 07:15:20;;;;;;;0.73;0.10;;;20.30;38.80;;;;;;5033632;28;20029;-47
2021/01/12 07:17:50;;;;;;;0.40;0.10;;;20.30;38.80;;;;;;5037567;28;20029;-48
2021/01/12 07:20:17;;;;;;;0.85;0.10;;;20.30;38.80;;;;;;5046149;28;20233;-49
2021/01/12 07:23:04;;;;;;;0.30;0.10;;;20.30;38.90;;;;;;5051051;28;20029;-47
2021/01/12 07:25:34;;;;;;;0.68;0.10;;;20.20;38.90;;;;;;5038647;28;20032;-48
2021/01/12 07:28:08;;;;;;;0.60;0.20;;;20.20;39.00;;;;;;5041574;28;20029;-48
2021/01/12 07:30:41;;;;;;;0.50;0.10;;;20.20;39.00;;;;;;5036425;28;20033;-48
2021/01/12 07:33:17;;;;;;;0.40;0.10;;;20.20;39.10;;;;;;5043677;28;20017;-47
2021/01/12 07:35:44;;;;;;;0.30;0.10;;;20.20;39.10;;;;;;5086900;22;20048;-52
2021/01/12 07:38:14;;;;;;;0.68;0.20;;;20.10;39.20;;;;;;5080509;28;20250;-53
2021/01/12 07:40:39;;;;;;;0.75;0.20;;;20.00;39.40;;;;;;5083375;28;20031;-55
2021/01/12 07:43:05;;;;;;;0.47;0.13;;;20.00;39.70;;;;;;5055348;28;20032;-52
2021/01/12 07:45:33;;;;;;;1.60;0.20;;;20.00;39.90;;;;;;5062859;28;20115;-54
2021/01/12 07:48:00;;;;;;;0.80;0.13;;;19.90;39.90;;;;;;5078457;28;20029;-56
2021/01/12 07:50:27;;;;;;;0.80;0.17;;;19.90;40.00;;;;;;5072227;28;20020;-53
2021/01/12 07:52:55;;;;;;;3.22;0.40;;;19.90;40.00;;;;;;5074908;28;20033;-54
2021/01/12 07:55:21;;;;;;;5.38;0.43;;;19.90;40.10;;;;;;5073637;28;20410;-55
2021/01/12 07:57:47;;;;;;;1.35;0.35;;;19.80;40.10;;;;;;5079014;28;20122;-54
2021/01/12 08:00:14;;;;;;;0.63;0.20;;;19.80;40.10;;;;;;5047889;28;20067;-52
2021/01/12 08:02:45;;;;;;;1.15;0.22;;;19.80;40.20;;;;;;5072090;28;20029;-52
2021/01/12 08:05:12;;;;;;;3.27;0.30;;;19.80;40.20;;;;;;5073410;28;20044;-53
2021/01/12 08:07:38;;;;;;;0.60;0.28;;;19.80;40.20;;;;;;5068442;28;20125;-53
2021/01/12 08:10:06;;;;;;;1.08;0.20;;;19.70;40.20;;;;;;5069776;28;20091;-54
2021/01/12 08:12:32;;;;;;;2.55;0.20;;;19.70;40.20;;;;;;5069298;28;20090;-53
2021/01/12 08:15:09;;;;;;;1.40;0.30;;;19.70;40.20;;;;;;5055617;28;20033;-52
2021/01/12 08:17:36;;;;;;;0.88;0.28;;;19.70;40.20;;;;;;5062592;28;20043;-53
2021/01/12 08:20:05;;;;;;;1.83;0.10;;;19.70;40.20;;;;;;5068901;28;20474;-53
2021/01/12 08:22:32;;;;;;;2.40;0.45;;;19.70;40.30;;;;;;5060876;28;20093;-52
2021/01/12 08:25:05;;;;;;;3.22;0.22;;;19.70;40.20;;;;;;5054677;28;20028;-45
2021/01/12 08:27:30;;;;;;;2.22;0.20;;;19.80;40.10;;;;;;5053476;28;21010;-48
2021/01/12 08:29:59;;;;;;;0.98;0.30;;;20.00;39.80;;;;;;5064899;28;20024;-45
2021/01/12 08:32:31;;;;;;;0.70;0.20;;;20.20;39.60;;;;;;5057984;28;20036;-47
2021/01/12 08:35:01;;;;;;;2.03;0.30;;;20.30;39.40;;;;;;5055187;28;20052;-48
2021/01/12 08:37:28;;;;;;;1.88;0.15;;;20.40;39.40;;;;;;5059757;28;20064;-52
2021/01/12 08:39:57;;;;;;;0.60;0.20;;;20.40;39.30;;;;;;5065303;28;20599;-46
2021/01/12 08:42:24;;;;;;;2.10;0.10;;;20.50;39.20;;;;;;5063729;28;20036;-46
2021/01/12 08:44:49;;;;;;;0.98;0.10;;;20.60;39.20;;;;;;5061243;28;20068;-45
2021/01/12 08:47:23;;;;;;;1.23;0.20;;;20.70;39.20;;;;;;5060142;28;20071;-53
2021/01/12 08:50:00;;;;;;;1.63;0.10;;;20.70;39.70;;;;;;5057640;28;20099;-51
2021/01/12 08:52:26;;;;;;;0.40;0.15;;;20.80;39.30;;;;;;5063767;28;20036;-47
2021/01/12 08:54:52;;;;;;;0.85;0.10;;;20.80;39.20;;;;;;5063693;28;20051;-49
2021/01/12 08:57:18;;;;;;;0.40;0.10;;;20.80;39.30;;;;;;5058091;28;20469;-45
2021/01/12 08:59:43;;;;;;;0.60;0.20;;;20.70;39.30;;;;;;5065029;28;20047;-51
2021/01/12 09:02:23;;;;;;;0.50;0.20;;;20.70;39.20;;;;;;5057770;28;20039;-48
2021/01/12 09:05:02;;;;;;;1.13;0.20;;;;;;;;;;5061008;28;20037;-48
2021/01/12 09:07:29;;;;;;;1.55;0.20;;;20.70;39.00;;;;;;5065959;28;20032;-49
2021/01/12 09:09:54;;;;;;;1.55;0.30;;;20.70;39.50;;;;;;5064243;28;20032;-49
2021/01/12 09:12:20;;;;;;;1.55;0.20;;;20.70;39.50;;;;;;5062947;28;20032;-44
2021/01/12 09:14:48;;;;;;;1.38;0.20;;;20.80;39.70;;;;;;5057082;28;20020;-51
2021/01/12 09:17:21;;;;;;;2.25;0.20;;;20.90;39.50;;;;;;5061907;28;20047;-47
2021/01/12 09:19:52;;;;;;;0.90;0.20;;;20.90;39.50;;;;;;5062386;28;20547;-48
2021/01/12 09:22:19;;;;;;;1.23;0.40;;;20.90;39.60;;;;;;5061998;28;20048;-48
2021/01/12 09:24:53;;;;;;;1.85;0.28;;;20.90;39.70;;;;;;5064175;28;20028;-50
2021/01/12 09:27:21;;;;;;;2.25;0.10;;;20.80;39.70;;;;;;5064940;28;20505;-52
2021/01/12 09:29:46;;;;;;;0.80;0.20;;;20.80;39.80;;;;;;5056712;28;20021;-51
2021/01/12 09:32:23;;;;;;;1.27;0.20;;;20.80;39.80;;;;;;5063253;28;20102;-44
2021/01/12 09:34:48;;;;;;;0.35;0.10;;;20.70;39.90;;;;;;5065794;28;20040;-51
2021/01/12 09:37:15;;;;;;;3.67;0.30;;;20.70;40.10;;;;;;5065910;28;20040;-48
2021/01/12 09:40:01;;;;;;;0.55;0.13;;;20.70;40.10;;;;;;5059333;28;20208;-47
2021/01/12 09:42:28;;;;;;;2.55;0.43;;;20.80;40.10;;;;;;5044461;28;20033;-46
2021/01/12 09:44:55;;;;;;;0.52;0.13;;;20.80;40.20;;;;;;5062062;28;20045;-45
2021/01/12 09:47:22;;;;;;;0.85;0.30;;;20.70;40.30;;;;;;5064639;28;20029;-45
2021/01/12 09:49:48;;;;;;;0.50;0.20;;;20.70;40.40;;;;;;5061773;28;20036;-50
2021/01/12 09:52:15;;;;;;;2.10;0.47;;;20.70;40.40;;;;;;5036474;28;20021;-48
2021/01/12 09:54:45;;;;;;;1.65;0.30;;;20.70;40.40;;;;;;5064730;28;20489;-42
2021/01/12 09:57:14;;;;;;;1.67;0.20;;;20.70;40.50;;;;;;5061184;28;20039;-46
2021/01/12 09:59:40;;;;;;;3.17;0.45;;;20.70;40.70;;;;;;5060469;28;20058;-49
2021/01/12 10:02:07;;;;;;;2.45;0.50;;;20.70;40.70;;;;;;5057672;28;20621;-53
2021/01/12 10:04:33;;;;;;;1.52;0.50;;;20.60;41.00;;;;;;5058480;28;20047;-52
2021/01/12 10:06:59;;;;;;;1.42;0.40;;;20.60;41.10;;;;;;5062609;28;20387;-47
2021/01/12 10:09:26;;;;;;;1.42;0.35;;;20.50;41.20;;;;;;5066619;28;20167;-49
2021/01/12 10:11:52;;;;;;;1.65;0.70;;;20.50;41.40;;;;;;5069508;28;20122;-44
2021/01/12 10:14:19;;;;;;;2.83;0.63;;;20.60;41.20;;;;;;5069714;28;20035;-49
2021/01/12 10:16:45;;;;;;;3.40;0.80;;;20.50;41.10;;;;;;5066787;28;20032;-51
2021/01/12 10:19:10;;;;;;;2.03;0.40;;;20.60;41.20;;;;;;5048852;28;20029;-47
2021/01/12 10:21:36;;;;;;;1.92;0.70;;;20.60;41.10;;;;;;5049199;28;20107;-47
2021/01/12 10:24:02;;;;;;;3.67;0.68;;;20.60;41.20;;;;;;5069281;28;22019;-45
2021/01/12 10:26:28;;;;;;;1.35;0.52;;;20.60;41.20;;;;;;5066270;28;20103;-46
2021/01/12 10:28:53;;;;;;;1.40;0.68;;;20.50;41.40;;;;;;5067631;28;20035;-42
2021/01/12 10:31:20;;;;;;;0.80;0.55;;;20.50;41.10;;;;;;5066131;28;20039;-47
2021/01/12 10:33:48;;;;;;;1.40;0.70;;;20.60;41.10;;;;;;5073276;28;20031;-47
2021/01/12 10:36:15;;;;;;;0.85;0.50;;;20.60;41.20;;;;;;5069945;28;20032;-46
2021/01/12 10:38:43;;;;;;;1.55;0.45;;;20.70;41.50;;;;;;5065078;28;20393;-49
2021/01/12 10:41:09;;;;;;;2.85;0.50;;;20.80;40.80;;;;;;5068364;28;20548;-48
2021/01/12 10:43:34;;;;;;;1.88;0.30;;;20.90;40.60;;;;;;5064334;28;20032;-40
2021/01/12 10:46:00;;;;;;;1.83;0.40;;;20.90;40.50;;;;;;5062900;28;20036;-46
2021/01/12 10:48:27;;;;;;;1.27;0.35;;;20.90;40.50;;;;;;5067848;28;20078;-48
2021/01/12 10:50:53;;;;;;;1.80;0.50;;;20.90;40.60;;;;;;5068738;28;20063;-50
2021/01/12 10:53:18;;;;;;;1.48;0.52;;;21.00;40.60;;;;;;5065815;28;20052;-47
2021/01/12 10:55:44;;;;;;;1.65;0.30;;;21.00;40.60;;;;;;5063188;28;20021;-53
2021/01/12 10:58:09;;;;;;;1.48;0.30;;;21.00;40.50;;;;;;5052789;28;20032;-47
2021/01/12 11:00:35;;;;;;;1.52;0.30;;;21.10;40.40;;;;;;5064501;28;20033;-50
2021/01/12 11:03:02;;;;;;;3.88;0.80;;;21.20;40.40;;;;;;5061689;28;20120;-54
2021/01/12 11:05:28;;;;;;;1.48;0.50;;;21.20;40.40;;;;;;5046450;28;20021;-48
2021/01/12 11:07:54;;;;;;;2.75;0.57;;;21.30;40.40;;;;;;5063547;28;20036;-47
2021/01/12 11:10:19;;;;;;;1.48;0.60;;;21.30;40.40;;;;;;5062991;28;20033;-48
2021/01/12 11:12:45;;;;;;;1.85;0.40;;;21.30;40.30;;;;;;5064609;28;20095;-49
2021/01/12 11:15:11;;;;;;;2.05;0.50;;;21.40;40.40;;;;;;5063156;28;20028;-49
2021/01/12 11:17:36;;;;;;;4.78;0.68;;;21.40;40.40;;;;;;5061123;28;20055;-47
2021/01/12 11:20:05;;;;;;;2.45;0.35;;;21.40;40.40;;;;;;5065967;28;20036;-46
2021/01/12 11:22:31;;;;;;;3.53;0.50;;;21.40;40.50;;;;;;5058476;28;20017;-48
2021/01/12 11:25:00;;;;;;;0.98;0.47;;;21.40;40.50;;;;;;5048100;28;20024;-50
2021/01/12 11:27:25;;;;;;;1.55;0.35;;;21.50;40.50;;;;;;5071254;28;20085;-44
2021/01/12 11:29:53;;;;;;;1.15;0.30;;;21.50;40.60;;;;;;5049517;28;20032;-48
2021/01/12 11:32:19;;;;;;;2.45;0.30;;;21.50;40.50;;;;;;5069671;28;20025;-43
2021/01/12 11:34:45;;;;;;;1.20;0.35;;;21.60;40.40;;;;;;5063981;28;20158;-45
2021/01/12 11:37:11;;;;;;;0.90;0.30;;;21.60;40.40;;;;;;5047416;28;20068;-46
2021/01/12 11:39:37;;;;;;;2.50;0.45;;;21.60;40.40;;;;;;5051185;28;20021;-49
2021/01/12 11:42:05;;;;;;;0.95;0.30;;;21.70;40.40;;;;;;5052158;28;20056;-45
2021/01/12 11:44:31;;;;;;;0.98;0.40;;;21.70;40.40;;;;;;5052222;28;20089;-47
2021/01/12 11:46:56;;;;;;;1.27;0.45;;;21.70;40.40;;;;;;5063205;28;20112;-48
2021/01/12 11:49:22;;;;;;;0.95;0.30;;;21.70;40.50;;;;;;5067038;28;20662;-48
2021/01/12 11:51:51;;;;;;;1.65;0.38;;;21.70;40.40;;;;;;5066018;28;20539;-49
2021/01/12 11:54:17;;;;;;;0.80;0.30;;;21.60;40.50;;;;;;5049588;28;20393;-46
2021/01/12 11:56:55;;;;;;;1.00;0.35;;;21.60;40.60;;;;;;5062852;28;20032;-47
2021/01/12 11:59:22;;;;;;;1.48;0.55;;;21.60;40.70;;;;;;5058299;28;20031;-51
2021/01/12 12:01:49;;;;;;;1.00;0.30;;;21.60;40.60;;;;;;5063204;28;20056;-51
2021/01/12 12:04:16;;;;;;;1.02;0.52;;;21.40;40.90;;;;;;5068358;28;20112;-47
2021/01/12 12:06:52;;;;;;;1.73;0.30;;;21.50;41.00;;;;;;5059472;28;20058;-49
2021/01/12 12:09:18;;;;;;;0.88;0.30;;;21.40;40.90;;;;;;5079175;28;20055;-49
2021/01/12 12:11:44;;;;;;;1.30;0.43;;;21.40;41.00;;;;;;5076504;28;20082;-49
2021/01/12 12:14:11;;;;;;;1.52;0.52;;;21.40;40.90;;;;;;5085807;28;20024;-52
2021/01/12 12:16:37;;;;;;;2.45;0.50;;;21.40;41.00;;;;;;5073389;28;20024;-55
2021/01/12 12:19:04;;;;;;;1.27;0.40;;;21.40;40.90;;;;;;5069562;28;20052;-43
2021/01/12 12:21:30;;;;;;;1.27;0.35;;;21.40;41.10;;;;;;5067983;28;20075;-51
2021/01/12 12:23:56;;;;;;;1.63;0.30;;;21.40;41.10;;;;;;5066607;28;20493;-47
2021/01/12 12:26:21;;;;;;;2.88;0.40;;;21.40;41.20;;;;;;5067370;28;20024;-42
2021/01/12 12:28:47;;;;;;;0.70;0.20;;;21.40;41.30;;;;;;5057206;28;20048;-47
2021/01/12 12:31:14;;;;;;;3.28;0.30;;;21.30;41.20;;;;;;5053742;28;20059;-51
2021/01/12 12:33:40;;;;;;;0.98;0.38;;;21.30;41.20;;;;;;5056939;28;20036;-46
2021/01/12 12:36:15;;;;;;;1.95;0.50;;;21.30;41.30;;;;;;5064971;28;20033;-51
2021/01/12 12:38:41;;;;;;;2.33;0.30;;;21.30;41.30;;;;;;5043903;28;20524;-52
2021/01/12 12:41:11;;;;;;;1.23;0.22;;;21.30;41.30;;;;;;5067146;28;20033;-44
2021/01/12 12:43:38;;;;;;;1.02;0.40;;;21.30;41.30;;;;;;5060889;28;20198;-48
2021/01/12 12:46:03;;;;;;;0.93;0.30;;;21.20;41.40;;;;;;5065924;28;20477;-47
2021/01/12 12:48:29;;;;;;;1.25;0.30;;;21.20;41.50;;;;;;5067094;28;20021;-45
2021/01/12 12:50:55;;;;;;;0.70;0.20;;;21.30;41.30;;;;;;5065757;28;20020;-44